createdAt,value
2022-11-03T00:01:34.789Z,11.64
2022-11-03T00:04:01.296Z,11.62
2022-11-03T00:06:27.797Z,11.61
2022-11-03T00:08:58.246Z,11.61
2022-11-03T00:11:24.680Z,11.62
2022-11-03T00:13:51.136Z,11.64
2022-11-03T00:16:17.630Z,11.64
2022-11-03T00:18:44.143Z,11.65
2022-11-03T00:21:13.281Z,11.63
2022-11-03T00:23:42.605Z,11.67
2022-11-03T00:26:18.192Z,11.66
2022-11-03T00:28:46.776Z,11.67
2022-11-03T00:31:15.499Z,11.69
2022-11-03T00:33:43.737Z,11.69
2022-11-03T00:36:13.403Z,11.70
2022-11-03T00:38:40.219Z,11.73
2022-11-03T00:41:07.004Z,11.75
2022-11-03T00:43:35.192Z,11.74
2022-11-03T00:46:01.843Z,11.76
2022-11-03T00:48:31.255Z,11.78
2022-11-03T00:51:06.842Z,11.78
2022-11-03T00:53:35.587Z,11.79
2022-11-03T00:56:02.514Z,11.78
2022-11-03T00:58:28.949Z,11.80
2022-11-03T01:00:59.741Z,11.82
2022-11-03T01:03:26.576Z,11.82
2022-11-03T01:06:11.532Z,11.83
2022-11-03T01:08:38.172Z,11.81
2022-11-03T01:11:31.790Z,11.84
2022-11-03T01:13:58.479Z,11.85
2022-11-03T01:16:25.181Z,11.85
2022-11-03T01:18:51.994Z,11.86
2022-11-03T01:21:19.165Z,11.85
2022-11-03T01:23:45.591Z,11.84
2022-11-03T01:26:13.481Z,11.87
2022-11-03T01:28:43.960Z,11.87
2022-11-03T01:31:14.916Z,11.87
2022-11-03T01:33:41.566Z,11.88
2022-11-03T01:36:09.745Z,11.87
2022-11-03T01:38:37.077Z,11.88
2022-11-03T01:41:05.583Z,11.87
2022-11-03T01:43:32.469Z,11.88
2022-11-03T01:46:23.401Z,11.87
2022-11-03T01:49:22.262Z,11.88
2022-11-03T01:51:54.724Z,11.85
2022-11-03T01:54:26.250Z,11.85
2022-11-03T01:56:53.291Z,11.87
2022-11-03T01:59:22.455Z,11.88
2022-11-03T02:01:49.148Z,11.85
2022-11-03T02:04:33.296Z,11.85
2022-11-03T02:07:11.519Z,11.86
2022-11-03T02:09:37.980Z,11.85
2022-11-03T02:12:08.373Z,11.87
2022-11-03T02:14:43.137Z,11.89
2022-11-03T02:17:12.548Z,11.88
2022-11-03T02:19:47.476Z,11.88
2022-11-03T02:22:32.669Z,11.91
2022-11-03T02:25:17.756Z,11.88
2022-11-03T02:27:44.733Z,11.89
2022-11-03T02:30:11.714Z,11.91
2022-11-03T02:33:04.349Z,11.93
2022-11-03T02:35:42.634Z,11.95
2022-11-03T02:38:15.068Z,11.94
2022-11-03T02:40:51.828Z,11.96
2022-11-03T02:43:19.694Z,11.94
2022-11-03T02:45:48.205Z,11.95
2022-11-03T02:48:17.831Z,11.95
2022-11-03T02:50:45.052Z,11.97
2022-11-03T02:53:12.828Z,11.95
2022-11-03T02:55:55.756Z,11.98
2022-11-03T02:58:39.451Z,11.97
2022-11-03T03:01:15.221Z,11.96
2022-11-03T03:03:52.329Z,11.97
2022-11-03T03:06:25.231Z,11.98
2022-11-03T03:09:06.882Z,12.01
2022-11-03T03:11:39.628Z,12.00
2022-11-03T03:14:09.186Z,12.03
2022-11-03T03:16:51.160Z,12.06
2022-11-03T03:19:47.904Z,12.08
2022-11-03T03:22:41.527Z,12.09
2022-11-03T03:25:20.884Z,12.11
2022-11-03T03:27:51.889Z,12.15
2022-11-03T03:30:18.811Z,12.16
2022-11-03T03:32:49.213Z,12.17
2022-11-03T03:35:26.657Z,12.20
2022-11-03T03:37:59.200Z,12.21
2022-11-03T03:40:36.027Z,12.23
2022-11-03T03:43:06.543Z,12.25
2022-11-03T03:45:34.547Z,12.25
2022-11-03T03:48:01.358Z,12.30
2022-11-03T03:50:31.679Z,12.31
2022-11-03T03:53:00.414Z,12.32
2022-11-03T03:55:35.561Z,12.32
2022-11-03T03:58:04.132Z,12.29
2022-11-03T04:00:30.894Z,12.32
2022-11-03T04:02:59.776Z,12.32
2022-11-03T04:05:26.881Z,12.31
2022-11-03T04:07:53.299Z,12.30
2022-11-03T04:10:22.237Z,12.28
2022-11-03T04:13:08.137Z,12.26
2022-11-03T04:16:03.610Z,12.25
2022-11-03T04:18:48.302Z,12.24
2022-11-03T04:21:32.980Z,12.24
2022-11-03T04:24:00.450Z,12.23
2022-11-03T04:26:28.581Z,12.23
2022-11-03T04:28:55.883Z,12.22
2022-11-03T04:31:22.554Z,12.21
2022-11-03T04:33:49.291Z,12.21
2022-11-03T04:36:21.310Z,12.20
2022-11-03T04:38:48.764Z,12.19
2022-11-03T04:41:28.870Z,12.18
2022-11-03T04:43:56.923Z,12.16
2022-11-03T04:46:28.738Z,12.16
2022-11-03T04:48:59.103Z,12.14
2022-11-03T04:51:29.874Z,12.15
2022-11-03T04:54:04.336Z,12.16
2022-11-03T04:56:30.847Z,12.14
2022-11-03T04:58:58.043Z,12.12
2022-11-03T05:01:25.158Z,12.13
2022-11-03T05:03:54.974Z,12.10
2022-11-03T05:06:23.733Z,12.09
2022-11-03T05:08:55.015Z,12.07
2022-11-03T05:11:32.316Z,12.08
2022-11-03T05:14:23.311Z,12.07
2022-11-03T05:16:51.680Z,12.08
2022-11-03T05:19:27.151Z,12.08
2022-11-03T05:21:55.564Z,12.08
2022-11-03T05:24:25.757Z,12.07
2022-11-03T05:26:55.665Z,12.06
2022-11-03T05:29:26.546Z,12.08
2022-11-03T05:31:55.931Z,12.07
2022-11-03T05:34:42.428Z,12.09
2022-11-03T05:37:08.815Z,12.12
2022-11-03T05:39:37.927Z,12.10
2022-11-03T05:42:23.414Z,12.12
2022-11-03T05:44:51.666Z,12.11
2022-11-03T05:47:24.240Z,12.13
2022-11-03T05:49:54.681Z,12.15
2022-11-03T05:52:24.184Z,12.17
2022-11-03T05:54:52.230Z,12.18
2022-11-03T05:57:19.456Z,12.18
2022-11-03T05:59:49.483Z,12.19
2022-11-03T06:02:36.120Z,12.22
2022-11-03T06:05:11.440Z,12.23
2022-11-03T06:07:38.190Z,12.26
2022-11-03T06:10:26.003Z,12.26
2022-11-03T06:13:21.615Z,12.27
2022-11-03T06:15:53.235Z,12.27
2022-11-03T06:18:22.817Z,12.28
2022-11-03T06:20:52.753Z,12.28
2022-11-03T06:23:20.806Z,12.31
2022-11-03T06:25:48.849Z,12.29
2022-11-03T06:28:19.900Z,12.28
2022-11-03T06:30:47.598Z,12.30
2022-11-03T06:33:35.078Z,12.31
2022-11-03T06:36:18.303Z,12.34
2022-11-03T06:38:52.708Z,12.36
2022-11-03T06:41:27.899Z,12.34
2022-11-03T06:43:54.594Z,12.33
2022-11-03T06:46:26.065Z,12.33
2022-11-03T06:48:55.766Z,12.32
2022-11-03T06:51:25.923Z,12.32
2022-11-03T06:53:53.966Z,12.31
2022-11-03T06:56:23.128Z,12.30
2022-11-03T06:58:52.984Z,12.28
2022-11-03T07:01:39.731Z,12.31
2022-11-03T07:04:16.337Z,12.30
2022-11-03T07:06:43.476Z,12.29
2022-11-03T07:09:21.320Z,12.30
2022-11-03T07:11:50.009Z,12.30
2022-11-03T07:14:22.793Z,12.32
2022-11-03T07:16:56.067Z,12.34
2022-11-03T07:19:30.765Z,12.34
2022-11-03T07:22:09.448Z,12.37
2022-11-03T07:24:45.753Z,12.39
2022-11-03T07:27:20.835Z,12.41
2022-11-03T07:29:49.590Z,12.43
2022-11-03T07:32:19.979Z,12.46
2022-11-03T07:34:47.848Z,12.48
2022-11-03T07:37:19.741Z,12.52
2022-11-03T07:39:46.962Z,12.52
2022-11-03T07:42:25.741Z,12.54
2022-11-03T07:44:53.152Z,12.56
2022-11-03T07:47:21.999Z,12.55
2022-11-03T07:49:48.798Z,12.58
2022-11-03T07:52:19.914Z,12.60
2022-11-03T07:54:46.698Z,12.59
2022-11-03T07:57:19.441Z,12.63
2022-11-03T07:59:49.335Z,12.64
2022-11-03T08:02:37.170Z,12.67
2022-11-03T08:05:04.496Z,12.69
2022-11-03T08:07:31.660Z,12.71
2022-11-03T08:09:58.681Z,12.73
2022-11-03T08:12:25.343Z,12.75
2022-11-03T08:14:51.771Z,12.76
2022-11-03T08:17:18.200Z,12.76
2022-11-03T08:19:44.607Z,12.82
2022-11-03T08:22:11.050Z,12.81
2022-11-03T08:24:37.475Z,12.84
2022-11-03T08:27:05.040Z,12.87
2022-11-03T08:29:31.675Z,12.91
2022-11-03T08:31:58.207Z,12.97
2022-11-03T08:34:24.627Z,13.00
2022-11-03T08:36:51.072Z,13.01
2022-11-03T08:39:17.957Z,13.03
2022-11-03T08:41:44.522Z,13.04
2022-11-03T08:44:10.954Z,13.04
2022-11-03T08:46:37.604Z,13.08
2022-11-03T08:49:04.043Z,13.09
2022-11-03T08:51:30.490Z,13.09
2022-11-03T08:53:56.931Z,13.09
2022-11-03T08:56:23.487Z,13.11
2022-11-03T08:58:50.350Z,13.13
2022-11-03T09:01:16.818Z,13.15
2022-11-03T09:03:43.531Z,13.21
2022-11-03T09:06:10.335Z,13.23
2022-11-03T09:11:23.462Z,13.27
2022-11-03T09:13:49.923Z,13.31
2022-11-03T09:16:17.156Z,13.31
2022-11-03T09:18:43.883Z,13.36
2022-11-03T09:21:10.341Z,13.36
2022-11-03T09:23:36.829Z,13.42
2022-11-03T09:26:03.258Z,13.47
2022-11-03T09:28:29.693Z,13.52
2022-11-03T09:30:56.101Z,13.57
2022-11-03T09:33:22.569Z,13.60
2022-11-03T09:35:49.032Z,13.64
2022-11-03T09:38:15.477Z,13.66
2022-11-03T09:40:41.920Z,13.70
2022-11-03T09:43:09.034Z,13.76
2022-11-03T09:45:35.740Z,13.79
2022-11-03T09:48:02.375Z,13.85
2022-11-03T09:50:28.941Z,13.87
2022-11-03T09:52:56.622Z,13.95
2022-11-03T09:55:27.354Z,13.97
2022-11-03T09:58:02.332Z,14.00
2022-11-03T10:00:28.831Z,14.03
2022-11-03T10:02:55.741Z,14.02
2022-11-03T10:05:28.344Z,14.03
2022-11-03T10:08:00.685Z,14.04
2022-11-03T10:10:27.764Z,14.04
2022-11-03T10:12:55.185Z,14.05
2022-11-03T10:15:24.586Z,14.04
2022-11-03T10:17:51.782Z,14.05
2022-11-03T10:20:21.068Z,14.03
2022-11-03T10:22:52.606Z,14.01
2022-11-03T10:25:44.912Z,14.02
2022-11-03T10:28:23.091Z,14.03
2022-11-03T10:31:11.380Z,14.03
2022-11-03T10:33:53.586Z,14.03
2022-11-03T10:36:20.205Z,13.99
2022-11-03T10:38:47.947Z,14.01
2022-11-03T10:41:18.124Z,14.05
2022-11-03T10:43:59.073Z,14.05
2022-11-03T10:49:18.327Z,14.06
2022-11-03T10:51:48.706Z,14.13
2022-11-03T10:54:17.549Z,14.13
2022-11-03T10:56:45.761Z,14.16
2022-11-03T10:59:24.543Z,14.20
2022-11-03T11:01:51.449Z,14.24
2022-11-03T11:04:20.186Z,14.26
2022-11-03T11:06:47.600Z,14.30
2022-11-03T11:09:23.489Z,14.30
2022-11-03T11:12:16.130Z,14.34
2022-11-03T11:14:59.893Z,14.35
2022-11-03T11:17:47.183Z,14.37
2022-11-03T11:20:29.016Z,14.41
2022-11-03T11:22:55.431Z,14.41
2022-11-03T11:26:00.334Z,14.51
2022-11-03T11:28:27.000Z,14.57
2022-11-03T11:30:53.423Z,14.65
2022-11-03T11:33:24.816Z,14.72
2022-11-03T11:35:54.031Z,14.80
2022-11-03T11:38:49.598Z,14.87
2022-11-03T11:41:16.041Z,14.87
2022-11-03T11:43:42.556Z,14.87
2022-11-03T11:46:38.397Z,14.89
2022-11-03T11:49:04.784Z,14.94
2022-11-03T11:51:34.435Z,14.97
2022-11-03T11:54:17.513Z,15.01
2022-11-03T11:56:47.289Z,15.05
2022-11-03T11:59:25.380Z,15.07
2022-11-03T12:01:55.581Z,15.12
2022-11-03T12:04:26.646Z,15.15
2022-11-03T12:06:53.479Z,15.14
2022-11-03T12:09:22.376Z,15.12
2022-11-03T12:11:56.425Z,15.14
2022-11-03T12:14:43.504Z,15.12
2022-11-03T12:17:18.903Z,15.09
2022-11-03T12:19:52.853Z,15.10
2022-11-03T12:22:25.954Z,15.14
2022-11-03T12:24:53.024Z,15.16
2022-11-03T12:27:25.246Z,15.23
2022-11-03T12:30:00.020Z,15.32
2022-11-03T12:32:33.803Z,15.36
2022-11-03T12:35:01.008Z,15.49
2022-11-03T12:37:27.485Z,15.62
2022-11-03T12:39:53.944Z,15.66
2022-11-03T12:42:21.047Z,15.72
2022-11-03T12:44:47.578Z,15.78
2022-11-03T12:47:14.003Z,15.72
2022-11-03T12:49:40.490Z,15.64
2022-11-03T12:52:08.594Z,15.57
2022-11-03T12:54:35.445Z,15.63
2022-11-03T12:57:02.062Z,15.76
2022-11-03T12:59:29.323Z,15.82
2022-11-03T13:01:55.916Z,15.80
2022-11-03T13:04:22.491Z,15.88
2022-11-03T13:06:48.967Z,15.85
2022-11-03T13:09:15.376Z,15.67
2022-11-03T13:12:00.386Z,15.53
2022-11-03T13:14:26.897Z,15.43
2022-11-03T13:16:53.535Z,15.41
2022-11-03T13:19:20.399Z,15.49
2022-11-03T13:21:46.844Z,15.54
2022-11-03T13:24:13.338Z,15.56
2022-11-03T13:26:39.735Z,15.53
2022-11-03T13:29:06.175Z,15.51
2022-11-03T13:31:32.699Z,15.51
2022-11-03T13:33:59.147Z,15.50
2022-11-03T13:36:25.683Z,15.47
2022-11-03T13:38:52.492Z,15.48
2022-11-03T13:41:18.909Z,15.47
2022-11-03T13:43:45.379Z,15.49
2022-11-03T13:46:12.907Z,15.52
2022-11-03T13:51:26.047Z,15.49
2022-11-03T13:59:25.865Z,15.37
2022-11-03T14:07:11.434Z,15.24
2022-11-03T14:09:38.041Z,15.22
2022-11-03T14:12:23.266Z,15.19
2022-11-03T14:14:49.695Z,15.19
2022-11-03T14:17:16.141Z,15.18
2022-11-03T14:19:47.257Z,15.15
2022-11-03T14:22:15.257Z,15.12
2022-11-03T14:24:41.820Z,15.12
2022-11-03T14:27:08.753Z,15.10
2022-11-03T14:29:35.305Z,15.07
2022-11-03T14:32:01.711Z,15.05
2022-11-03T14:34:28.281Z,15.01
2022-11-03T14:36:54.843Z,14.99
2022-11-03T14:39:21.343Z,14.96
2022-11-03T14:42:06.407Z,14.93
2022-11-03T14:44:38.756Z,14.92
2022-11-03T14:47:07.715Z,14.90
2022-11-03T14:49:35.271Z,14.84
2022-11-03T14:52:03.358Z,14.78
2022-11-03T14:54:31.003Z,14.74
2022-11-03T14:56:58.031Z,14.70
2022-11-03T14:59:24.972Z,14.68
2022-11-03T15:01:52.611Z,14.66
2022-11-03T15:04:19.477Z,14.64
2022-11-03T15:06:46.518Z,14.63
2022-11-03T15:09:14.768Z,14.62
2022-11-03T15:11:42.682Z,14.61
2022-11-03T15:14:10.049Z,14.57
2022-11-03T15:16:36.943Z,14.54
2022-11-03T15:19:04.763Z,14.51
2022-11-03T15:21:31.877Z,14.48
2022-11-03T15:26:45.096Z,14.34
2022-11-03T15:29:11.605Z,14.35
2022-11-03T15:31:39.247Z,14.32
2022-11-03T15:34:08.702Z,14.30
2022-11-03T15:36:35.490Z,14.27
2022-11-03T15:39:02.015Z,14.23
2022-11-03T15:41:28.493Z,14.21
2022-11-03T15:43:54.927Z,14.15
2022-11-03T15:46:21.376Z,14.15
2022-11-03T15:48:49.203Z,14.14
2022-11-03T15:51:16.035Z,14.13
2022-11-03T15:53:43.770Z,14.10
2022-11-03T15:56:10.296Z,14.06
2022-11-03T15:58:37.597Z,14.03
2022-11-03T16:01:05.012Z,13.99
2022-11-03T16:03:32.181Z,13.93
2022-11-03T16:05:59.184Z,13.95
2022-11-03T16:08:25.764Z,13.94
2022-11-03T16:10:57.635Z,13.91
2022-11-03T16:13:24.988Z,13.90
2022-11-03T16:15:51.787Z,13.85
2022-11-03T16:18:18.522Z,13.81
2022-11-03T16:20:45.060Z,13.82
2022-11-03T16:23:11.487Z,13.85
2022-11-03T16:25:38.007Z,13.88
2022-11-03T16:28:04.785Z,13.87
2022-11-03T16:30:31.756Z,13.83
2022-11-03T16:32:58.186Z,13.82
2022-11-03T16:35:24.784Z,13.83
2022-11-03T16:37:51.258Z,13.80
2022-11-03T16:40:19.994Z,13.76
2022-11-03T16:42:47.234Z,13.77
2022-11-03T16:45:22.314Z,13.73
2022-11-03T16:47:50.544Z,13.71
2022-11-03T16:50:18.527Z,13.68
2022-11-03T16:52:49.327Z,13.62
2022-11-03T16:55:17.738Z,13.59
2022-11-03T16:57:44.824Z,13.53
2022-11-03T17:00:16.997Z,13.48
2022-11-03T17:02:44.253Z,13.46
2022-11-03T17:05:11.618Z,13.42
2022-11-03T17:07:38.206Z,13.37
2022-11-03T17:10:06.176Z,13.33
2022-11-03T17:12:32.644Z,13.25
2022-11-03T17:14:59.144Z,13.21
2022-11-03T17:17:25.603Z,13.16
2022-11-03T17:19:52.049Z,13.09
2022-11-03T17:22:20.185Z,13.09
2022-11-03T17:24:46.669Z,13.04
2022-11-03T17:27:18.913Z,13.02
2022-11-03T17:29:51.672Z,13.05
2022-11-03T17:32:25.245Z,13.05
2022-11-03T17:34:57.156Z,13.02
2022-11-03T17:37:24.977Z,12.96
2022-11-03T17:39:52.304Z,12.91
2022-11-03T17:42:21.585Z,12.91
2022-11-03T17:44:50.244Z,12.84
2022-11-03T17:47:18.223Z,12.80
2022-11-03T17:49:45.621Z,12.76
2022-11-03T17:52:28.816Z,12.77
2022-11-03T17:54:59.893Z,12.75
2022-11-03T17:57:26.907Z,12.73
2022-11-03T17:59:55.797Z,12.71
2022-11-03T18:02:24.874Z,12.64
2022-11-03T18:04:57.621Z,12.60
2022-11-03T18:07:28.873Z,12.55
2022-11-03T18:09:58.361Z,12.53
2022-11-03T18:12:47.604Z,12.57
2022-11-03T18:15:19.045Z,12.50
2022-11-03T18:17:45.886Z,12.51
2022-11-03T18:20:22.001Z,12.52
2022-11-03T18:22:49.892Z,12.52
2022-11-03T18:25:18.988Z,12.51
2022-11-03T18:27:45.789Z,12.51
2022-11-03T18:30:16.936Z,12.51
2022-11-03T18:32:48.920Z,12.53
2022-11-03T18:35:22.656Z,12.50
2022-11-03T18:37:49.984Z,12.46
2022-11-03T18:40:16.694Z,12.48
2022-11-03T18:42:43.184Z,12.51
2022-11-03T18:45:15.475Z,12.50
2022-11-03T18:47:42.561Z,12.46
2022-11-03T18:50:14.316Z,12.50
2022-11-03T18:52:43.566Z,12.47
2022-11-03T18:55:14.386Z,12.42
2022-11-03T18:57:41.112Z,12.41
2022-11-03T19:00:17.402Z,12.39
2022-11-03T19:02:43.848Z,12.38
2022-11-03T19:05:14.063Z,12.39
2022-11-03T19:07:42.376Z,12.38
2022-11-03T19:10:13.002Z,12.33
2022-11-03T19:12:43.638Z,12.32
2022-11-03T19:15:18.480Z,12.31
2022-11-03T19:17:47.408Z,12.31
2022-11-03T19:20:15.356Z,12.28
2022-11-03T19:22:42.131Z,12.26
2022-11-03T19:25:08.972Z,12.25
2022-11-03T19:27:38.320Z,12.21
2022-11-03T19:30:05.945Z,12.19
2022-11-03T19:32:36.778Z,12.19
2022-11-03T19:35:16.940Z,12.16
2022-11-03T19:37:43.739Z,12.16
2022-11-03T19:40:16.861Z,12.16
2022-11-03T19:42:43.359Z,12.17
2022-11-03T19:45:18.784Z,12.11
2022-11-03T19:48:22.579Z,12.09
2022-11-03T19:50:37.871Z,12.05
2022-11-03T19:53:07.208Z,12.02
2022-11-03T19:55:40.339Z,11.97
2022-11-03T19:58:29.029Z,11.91
2022-11-03T20:00:56.474Z,11.89
2022-11-03T20:03:24.359Z,11.90
2022-11-03T20:05:56.482Z,11.88
2022-11-03T20:08:29.120Z,11.89
2022-11-03T20:10:56.173Z,11.89
2022-11-03T20:13:25.474Z,11.88
2022-11-03T20:15:58.968Z,11.86
2022-11-03T20:18:27.002Z,11.87
2022-11-03T20:20:53.549Z,11.82
2022-11-03T20:23:25.632Z,11.83
2022-11-03T20:25:52.713Z,11.81
2022-11-03T20:28:25.121Z,11.79
2022-11-03T20:30:52.565Z,11.81
2022-11-03T20:33:20.573Z,11.78
2022-11-03T20:35:48.574Z,11.81
2022-11-03T20:38:19.178Z,11.81
2022-11-03T20:40:47.185Z,11.80
2022-11-03T20:43:25.742Z,11.79
2022-11-03T20:45:53.684Z,11.79
2022-11-03T20:48:20.223Z,11.79
2022-11-03T20:50:47.067Z,11.80
2022-11-03T20:53:22.224Z,11.79
2022-11-03T20:55:48.812Z,11.80
2022-11-03T20:58:17.258Z,11.78
2022-11-03T21:00:45.812Z,11.78
2022-11-03T21:03:37.999Z,11.75
2022-11-03T21:06:05.533Z,11.73
2022-11-03T21:08:31.963Z,11.69
2022-11-03T21:11:18.477Z,11.66
2022-11-03T21:13:44.913Z,11.62
2022-11-03T21:16:29.954Z,11.59
2022-11-03T21:19:14.729Z,11.56
2022-11-03T21:21:41.264Z,11.52
2022-11-03T21:24:11.372Z,11.48
2022-11-03T21:26:40.043Z,11.43
2022-11-03T21:29:06.682Z,11.39
2022-11-03T21:31:33.091Z,11.36
2022-11-03T21:33:59.584Z,11.33
2022-11-03T21:36:26.047Z,11.31
2022-11-03T21:38:52.598Z,11.31
2022-11-03T21:41:37.669Z,11.29
2022-11-03T21:44:16.230Z,11.28
2022-11-03T21:46:44.142Z,11.26
2022-11-03T21:49:29.745Z,11.26
2022-11-03T21:51:57.521Z,11.22
2022-11-03T21:54:23.976Z,11.22
2022-11-03T21:56:50.435Z,11.18
2022-11-03T21:59:16.896Z,11.17
2022-11-03T22:01:43.449Z,11.13
2022-11-03T22:04:09.987Z,11.12
2022-11-03T22:06:36.459Z,11.11
2022-11-03T22:09:03.227Z,11.08
2022-11-03T22:11:29.673Z,11.09
2022-11-03T22:13:58.624Z,11.08
2022-11-03T22:16:38.280Z,11.07
2022-11-03T22:19:27.426Z,11.03
2022-11-03T22:22:12.800Z,10.94
2022-11-03T22:24:57.920Z,10.82
2022-11-03T22:27:25.876Z,10.73
2022-11-03T22:30:10.891Z,10.65
2022-11-03T22:32:37.445Z,10.61
2022-11-03T22:35:24.003Z,10.61
2022-11-03T22:38:02.339Z,10.61
2022-11-03T22:40:47.674Z,10.62
2022-11-03T22:43:32.496Z,10.62
2022-11-03T22:45:59.003Z,10.65
2022-11-03T22:48:26.868Z,10.67
2022-11-03T22:51:13.303Z,10.71
2022-11-03T22:53:59.006Z,10.69
2022-11-03T22:56:27.247Z,10.69
2022-11-03T22:58:54.181Z,10.71
2022-11-03T23:01:23.408Z,10.72
2022-11-03T23:03:50.304Z,10.74
2022-11-03T23:06:19.458Z,10.76
2022-11-03T23:08:47.422Z,10.74
2022-11-03T23:11:25.335Z,10.76
2022-11-03T23:14:00.284Z,10.75
2022-11-03T23:16:29.333Z,10.73
2022-11-03T23:19:15.815Z,10.74
2022-11-03T23:21:45.367Z,10.72
2022-11-03T23:24:30.871Z,10.72
2022-11-03T23:26:59.492Z,10.71
2022-11-03T23:29:26.701Z,10.68
2022-11-03T23:31:53.941Z,10.67
2022-11-03T23:34:20.699Z,10.64
2022-11-03T23:36:47.169Z,10.59
2022-11-03T23:39:15.368Z,10.56
2022-11-03T23:41:43.611Z,10.55
2022-11-03T23:44:11.576Z,10.53
2022-11-03T23:46:56.607Z,10.54
2022-11-03T23:49:23.303Z,10.56
2022-11-03T23:51:49.948Z,10.59
2022-11-03T23:54:16.499Z,10.58
2022-11-03T23:57:04.072Z,10.59
2022-11-03T23:59:32.155Z,10.61
